Time,TemperatureF,DewpointF,PressureIn,WindDirection,WindDirectionDegrees,WindSpeedMPH,WindSpeedGustMPH,Humidity,HourlyPrecipIn,Conditions,Clouds,dailyrainin,SoftwareType,DateUTC
2013-05-29 00:00:00,49.0,-99.9,-100.00,North,-999,-999.0,-999.0,-999,0.00,,,0.02,,2013-05-29 07:00:00,
2013-05-29 00:35:00,49.0,-99.9,-100.00,North,-999,-999.0,-999.0,-999,0.00,,,0.02,,2013-05-29 07:35:00,
2013-05-29 00:42:00,49.0,-99.9,-100.00,North,-999,-999.0,-999.0,-999,0.00,,,0.02,,2013-05-29 07:42:00,
2013-05-29 00:53:00,49.0,-99.9,-100.00,North,-999,-999.0,-999.0,-999,0.00,,,0.02,,2013-05-29 07:53:00,
2013-05-29 01:00:00,47.0,-99.9,-100.00,North,-999,-999.0,-999.0,-999,0.04,,,0.05,,2013-05-29 08:00:00,
2013-05-29 01:32:00,47.0,-99.9,-100.00,North,-999,-999.0,-999.0,-999,0.04,,,0.05,,2013-05-29 08:32:00,
2013-05-29 01:42:00,47.0,-99.9,-100.00,North,-999,-999.0,-999.0,-999,0.04,,,0.05,,2013-05-29 08:42:00,
2013-05-29 01:52:00,47.0,-99.9,-100.00,North,-999,-999.0,-999.0,-999,0.04,,,0.05,,2013-05-29 08:52:00,
2013-05-29 02:00:00,47.0,-99.9,-100.00,North,-999,-999.0,-999.0,-999,0.02,,,0.07,,2013-05-29 09:00:00,
2013-05-29 02:33:00,47.0,-99.9,-100.00,North,-999,-999.0,-999.0,-999,0.02,,,0.07,,2013-05-29 09:33:00,
2013-05-29 02:42:00,47.0,-99.9,-100.00,North,-999,-999.0,-999.0,-999,0.02,,,0.07,,2013-05-29 09:42:00,
2013-05-29 02:53:00,47.0,-99.9,-100.00,North,-999,-999.0,-999.0,-999,0.02,,,0.07,,2013-05-29 09:53:00,
2013-05-29 03:00:00,46.0,-99.9,-100.00,North,-999,-999.0,-999.0,-999,0.05,,,0.12,,2013-05-29 10:00:00,
2013-05-29 03:33:00,46.0,-99.9,-100.00,North,-999,-999.0,-999.0,-999,0.05,,,0.12,,2013-05-29 10:33:00,
2013-05-29 03:42:00,46.0,-99.9,-100.00,North,-999,-999.0,-999.0,-999,0.05,,,0.12,,2013-05-29 10:42:00,
2013-05-29 03:53:00,46.0,-99.9,-100.00,North,-999,-999.0,-999.0,-999,0.05,,,0.12,,2013-05-29 10:53:00,
2013-05-29 04:00:00,47.0,-99.9,-100.00,North,-999,-999.0,-999.0,-999,0.01,,,0.13,,2013-05-29 11:00:00,
2013-05-29 04:32:00,47.0,-99.9,-100.00,North,-999,-999.0,-999.0,-999,0.01,,,0.13,,2013-05-29 11:32:00,
2013-05-29 04:42:00,47.0,-99.9,-100.00,North,-999,-999.0,-999.0,-999,0.01,,,0.13,,2013-05-29 11:42:00,
2013-05-29 04:52:00,47.0,-99.9,-100.00,North,-999,-999.0,-999.0,-999,0.01,,,0.13,,2013-05-29 11:52:00,
2013-05-29 05:00:00,46.0,-99.9,-100.00,North,-999,-999.0,-999.0,-999,0.00,,,0.13,,2013-05-29 12:00:00,
2013-05-29 05:32:00,46.0,-99.9,-100.00,North,-999,-999.0,-999.0,-999,0.00,,,0.13,,2013-05-29 12:32:00,
2013-05-29 05:42:00,46.0,-99.9,-100.00,North,-999,-999.0,-999.0,-999,0.00,,,0.13,,2013-05-29 12:42:00,
2013-05-29 05:52:00,46.0,-99.9,-100.00,North,-999,-999.0,-999.0,-999,0.00,,,0.13,,2013-05-29 12:52:00,
2013-05-29 06:00:00,46.0,-99.9,-100.00,North,-999,-999.0,-999.0,-999,0.00,,,0.13,,2013-05-29 13:00:00,
2013-05-29 06:32:00,46.0,-99.9,-100.00,North,-999,-999.0,-999.0,-999,0.00,,,0.13,,2013-05-29 13:32:00,
2013-05-29 06:42:00,46.0,-99.9,-100.00,North,-999,-999.0,-999.0,-999,0.00,,,0.13,,2013-05-29 13:42:00,
2013-05-29 06:53:00,46.0,-99.9,-100.00,North,-999,-999.0,-999.0,-999,0.00,,,0.13,,2013-05-29 13:53:00,
2013-05-29 08:00:00,49.0,-99.9,-100.00,North,-999,-999.0,-999.0,-999,0.01,,,0.16,,2013-05-29 15:00:00,
2013-05-29 08:33:00,49.0,-99.9,-100.00,North,-999,-999.0,-999.0,-999,0.01,,,0.16,,2013-05-29 15:33:00,
2013-05-29 08:43:00,49.0,-99.9,-100.00,North,-999,-999.0,-999.0,-999,0.01,,,0.16,,2013-05-29 15:43:00,
2013-05-29 08:53:00,49.0,-99.9,-100.00,North,-999,-999.0,-999.0,-999,0.01,,,0.16,,2013-05-29 15:53:00,
2013-05-29 09:00:00,53.0,-99.9,-100.00,North,-999,-999.0,-999.0,-999,0.00,,,0.16,,2013-05-29 16:00:00,
2013-05-29 09:33:00,53.0,-99.9,-100.00,North,-999,-999.0,-999.0,-999,0.00,,,0.16,,2013-05-29 16:33:00,
2013-05-29 09:43:00,53.0,-99.9,-100.00,North,-999,-999.0,-999.0,-999,0.00,,,0.16,,2013-05-29 16:43:00,
2013-05-29 09:52:00,53.0,-99.9,-100.00,North,-999,-999.0,-999.0,-999,0.00,,,0.16,,2013-05-29 16:52:00,
2013-05-29 10:00:00,54.0,-99.9,-100.00,North,-999,-999.0,-999.0,-999,0.04,,,0.20,,2013-05-29 17:00:00,
2013-05-29 10:33:00,54.0,-99.9,-100.00,North,-999,-999.0,-999.0,-999,0.04,,,0.20,,2013-05-29 17:33:00,
2013-05-29 10:43:00,54.0,-99.9,-100.00,North,-999,-999.0,-999.0,-999,0.04,,,0.20,,2013-05-29 17:43:00,
2013-05-29 10:53:00,54.0,-99.9,-100.00,North,-999,-999.0,-999.0,-999,0.04,,,0.20,,2013-05-29 17:53:00,
2013-05-29 11:00:00,56.0,-99.9,-100.00,North,-999,-999.0,-999.0,-999,0.02,,,0.22,,2013-05-29 18:00:00,
2013-05-29 11:32:00,56.0,-99.9,-100.00,North,-999,-999.0,-999.0,-999,0.02,,,0.22,,2013-05-29 18:32:00,
2013-05-29 11:42:00,56.0,-99.9,-100.00,North,-999,-999.0,-999.0,-999,0.02,,,0.22,,2013-05-29 18:42:00,
2013-05-29 11:52:00,56.0,-99.9,-100.00,North,-999,-999.0,-999.0,-999,0.02,,,0.22,,2013-05-29 18:52:00,
2013-05-29 12:00:00,57.0,-99.9,-100.00,North,-999,-999.0,-999.0,-999,0.00,,,0.22,,2013-05-29 19:00:00,
2013-05-29 12:32:00,57.0,-99.9,-100.00,North,-999,-999.0,-999.0,-999,0.00,,,0.22,,2013-05-29 19:32:00,
2013-05-29 12:44:00,57.0,-99.9,-100.00,North,-999,-999.0,-999.0,-999,0.00,,,0.22,,2013-05-29 19:44:00,
2013-05-29 12:53:00,57.0,-99.9,-100.00,North,-999,-999.0,-999.0,-999,0.00,,,0.22,,2013-05-29 19:53:00,
2013-05-29 13:00:00,57.0,-99.9,-100.00,North,-999,-999.0,-999.0,-999,0.01,,,0.23,,2013-05-29 20:00:00,
2013-05-29 13:33:00,57.0,-99.9,-100.00,North,-999,-999.0,-999.0,-999,0.01,,,0.23,,2013-05-29 20:33:00,
2013-05-29 13:42:00,57.0,-99.9,-100.00,North,-999,-999.0,-999.0,-999,0.01,,,0.23,,2013-05-29 20:42:00,
2013-05-29 13:53:00,57.0,-99.9,-100.00,North,-999,-999.0,-999.0,-999,0.01,,,0.23,,2013-05-29 20:53:00,
2013-05-29 14:00:00,58.0,-99.9,-100.00,North,-999,-999.0,-999.0,-999,0.00,,,0.23,,2013-05-29 21:00:00,
2013-05-29 14:34:00,58.0,-99.9,-100.00,North,-999,-999.0,-999.0,-999,0.00,,,0.23,,2013-05-29 21:34:00,
2013-05-29 14:44:00,58.0,-99.9,-100.00,North,-999,-999.0,-999.0,-999,0.00,,,0.23,,2013-05-29 21:44:00,
2013-05-29 14:53:00,58.0,-99.9,-100.00,North,-999,-999.0,-999.0,-999,0.00,,,0.23,,2013-05-29 21:53:00,
2013-05-29 15:00:00,58.0,-99.9,-100.00,North,-999,-999.0,-999.0,-999,0.00,,,0.23,,2013-05-29 22:00:00,
2013-05-29 15:34:00,58.0,-99.9,-100.00,North,-999,-999.0,-999.0,-999,0.00,,,0.23,,2013-05-29 22:34:00,
2013-05-29 15:43:00,58.0,-99.9,-100.00,North,-999,-999.0,-999.0,-999,0.00,,,0.23,,2013-05-29 22:43:00,
2013-05-29 15:53:00,58.0,-99.9,-100.00,North,-999,-999.0,-999.0,-999,0.00,,,0.23,,2013-05-29 22:53:00,
2013-05-29 16:00:00,58.0,-99.9,-100.00,North,-999,-999.0,-999.0,-999,0.00,,,0.23,,2013-05-29 23:00:00,
2013-05-29 16:33:00,58.0,-99.9,-100.00,North,-999,-999.0,-999.0,-999,0.00,,,0.23,,2013-05-29 23:33:00,
2013-05-29 16:43:00,58.0,-99.9,-100.00,North,-999,-999.0,-999.0,-999,0.00,,,0.23,,2013-05-29 23:43:00,
2013-05-29 16:53:00,58.0,-99.9,-100.00,North,-999,-999.0,-999.0,-999,0.00,,,0.23,,2013-05-29 23:53:00,
2013-05-29 17:00:00,59.0,-99.9,-100.00,North,-999,-999.0,-999.0,-999,0.00,,,0.23,,2013-05-30 00:00:00,
2013-05-29 17:32:00,59.0,-99.9,-100.00,North,-999,-999.0,-999.0,-999,0.00,,,0.23,,2013-05-30 00:32:00,
2013-05-29 17:42:00,59.0,-99.9,-100.00,North,-999,-999.0,-999.0,-999,0.00,,,0.23,,2013-05-30 00:42:00,
2013-05-29 17:53:00,59.0,-99.9,-100.00,North,-999,-999.0,-999.0,-999,0.00,,,0.23,,2013-05-30 00:53:00,
2013-05-29 18:00:00,56.0,-99.9,-100.00,North,-999,-999.0,-999.0,-999,0.00,,,0.23,,2013-05-30 01:00:00,
2013-05-29 18:32:00,56.0,-99.9,-100.00,North,-999,-999.0,-999.0,-999,0.00,,,0.23,,2013-05-30 01:32:00,
2013-05-29 18:42:00,56.0,-99.9,-100.00,North,-999,-999.0,-999.0,-999,0.00,,,0.23,,2013-05-30 01:42:00,
2013-05-29 18:53:00,56.0,-99.9,-100.00,North,-999,-999.0,-999.0,-999,0.00,,,0.23,,2013-05-30 01:53:00,
2013-05-29 19:00:00,53.0,-99.9,-100.00,North,-999,-999.0,-999.0,-999,0.00,,,0.22,,2013-05-30 02:00:00,
2013-05-29 19:32:00,53.0,-99.9,-100.00,North,-999,-999.0,-999.0,-999,0.00,,,0.22,,2013-05-30 02:32:00,
2013-05-29 19:42:00,53.0,-99.9,-100.00,North,-999,-999.0,-999.0,-999,0.00,,,0.22,,2013-05-30 02:42:00,
2013-05-29 19:52:00,53.0,-99.9,-100.00,North,-999,-999.0,-999.0,-999,0.00,,,0.22,,2013-05-30 02:52:00,
2013-05-29 20:00:00,52.0,-99.9,-100.00,North,-999,-999.0,-999.0,-999,0.00,,,0.22,,2013-05-30 03:00:00,
2013-05-29 20:33:00,52.0,-99.9,-100.00,North,-999,-999.0,-999.0,-999,0.00,,,0.22,,2013-05-30 03:33:00,
2013-05-29 20:43:00,52.0,-99.9,-100.00,North,-999,-999.0,-999.0,-999,0.00,,,0.22,,2013-05-30 03:43:00,
2013-05-29 20:53:00,52.0,-99.9,-100.00,North,-999,-999.0,-999.0,-999,0.00,,,0.22,,2013-05-30 03:53:00,
2013-05-29 21:00:00,50.0,-99.9,-100.00,North,-999,-999.0,-999.0,-999,0.00,,,0.22,,2013-05-30 04:00:00,
2013-05-29 21:33:00,50.0,-99.9,-100.00,North,-999,-999.0,-999.0,-999,0.00,,,0.22,,2013-05-30 04:33:00,
2013-05-29 21:42:00,50.0,-99.9,-100.00,North,-999,-999.0,-999.0,-999,0.00,,,0.22,,2013-05-30 04:42:00,
2013-05-29 21:53:00,50.0,-99.9,-100.00,North,-999,-999.0,-999.0,-999,0.00,,,0.22,,2013-05-30 04:53:00,
2013-05-29 22:00:00,49.0,-99.9,-100.00,North,-999,-999.0,-999.0,-999,0.00,,,0.22,,2013-05-30 05:00:00,
2013-05-29 22:32:00,49.0,-99.9,-100.00,North,-999,-999.0,-999.0,-999,0.00,,,0.22,,2013-05-30 05:32:00,
2013-05-29 22:43:00,49.0,-99.9,-100.00,North,-999,-999.0,-999.0,-999,0.00,,,0.22,,2013-05-30 05:43:00,
2013-05-29 22:53:00,49.0,-99.9,-100.00,North,-999,-999.0,-999.0,-999,0.00,,,0.22,,2013-05-30 05:53:00,
2013-05-29 23:00:00,46.0,-99.9,-100.00,North,-999,-999.0,-999.0,-999,0.00,,,0.22,,2013-05-30 06:00:00,
2013-05-29 23:32:00,46.0,-99.9,-100.00,North,-999,-999.0,-999.0,-999,0.00,,,0.22,,2013-05-30 06:32:00,
2013-05-29 23:42:00,46.0,-99.9,-100.00,North,-999,-999.0,-999.0,-999,0.00,,,0.22,,2013-05-30 06:42:00,
2013-05-29 23:52:00,46.0,-99.9,-100.00,North,-999,-999.0,-999.0,-999,0.00,,,0.22,,2013-05-30 06:52:00,